sensor_id;sensor_type;location;lat;lon;timestamp;temperature;humidity
76897;SHT30;65856;52.178;21.176;2024-03-29T00:02:23;9.81;76.20
76897;SHT30;65856;52.178;21.176;2024-03-29T00:04:48;9.84;76.31
76897;SHT30;65856;52.178;21.176;2024-03-29T00:07:13;9.85;76.43
76897;SHT30;65856;52.178;21.176;2024-03-29T00:09:39;9.86;76.31
76897;SHT30;65856;52.178;21.176;2024-03-29T00:12:04;9.88;75.89
76897;SHT30;65856;52.178;21.176;2024-03-29T00:14:31;9.94;75.46
76897;SHT30;65856;52.178;21.176;2024-03-29T00:16:57;9.99;75.40
76897;SHT30;65856;52.178;21.176;2024-03-29T00:19:22;10.05;75.34
76897;SHT30;65856;52.178;21.176;2024-03-29T00:21:47;10.10;75.28
76897;SHT30;65856;52.178;21.176;2024-03-29T00:24:13;10.15;75.25
76897;SHT30;65856;52.178;21.176;2024-03-29T00:26:38;10.18;75.20
76897;SHT30;65856;52.178;21.176;2024-03-29T00:29:04;10.20;75.22
76897;SHT30;65856;52.178;21.176;2024-03-29T00:31:29;10.21;75.29
76897;SHT30;65856;52.178;21.176;2024-03-29T00:33:55;10.25;75.64
76897;SHT30;65856;52.178;21.176;2024-03-29T00:36:20;10.27;75.49
76897;SHT30;65856;52.178;21.176;2024-03-29T00:38:46;10.30;75.52
76897;SHT30;65856;52.178;21.176;2024-03-29T00:41:11;10.32;75.72
76897;SHT30;65856;52.178;21.176;2024-03-29T00:43:36;10.34;75.73
76897;SHT30;65856;52.178;21.176;2024-03-29T00:46:02;10.37;75.75
76897;SHT30;65856;52.178;21.176;2024-03-29T00:48:27;10.39;75.80
76897;SHT30;65856;52.178;21.176;2024-03-29T00:50:53;10.40;75.84
76897;SHT30;65856;52.178;21.176;2024-03-29T00:53:19;10.42;76.05
76897;SHT30;65856;52.178;21.176;2024-03-29T00:55:44;10.42;76.22
76897;SHT30;65856;52.178;21.176;2024-03-29T00:58:09;10.43;76.24
76897;SHT30;65856;52.178;21.176;2024-03-29T01:00:36;10.45;76.36
76897;SHT30;65856;52.178;21.176;2024-03-29T01:03:01;10.47;76.48
76897;SHT30;65856;52.178;21.176;2024-03-29T01:05:27;10.47;76.47
76897;SHT30;65856;52.178;21.176;2024-03-29T01:07:52;10.48;76.60
76897;SHT30;65856;52.178;21.176;2024-03-29T01:10:18;10.48;76.70
76897;SHT30;65856;52.178;21.176;2024-03-29T01:12:43;10.48;76.73
76897;SHT30;65856;52.178;21.176;2024-03-29T01:15:11;10.49;76.67
76897;SHT30;65856;52.178;21.176;2024-03-29T01:17:36;10.48;76.57
76897;SHT30;65856;52.178;21.176;2024-03-29T01:20:02;10.47;76.47
76897;SHT30;65856;52.178;21.176;2024-03-29T01:22:27;10.45;76.31
76897;SHT30;65856;52.178;21.176;2024-03-29T01:24:53;10.45;76.21
76897;SHT30;65856;52.178;21.176;2024-03-29T01:27:18;10.46;76.11
76897;SHT30;65856;52.178;21.176;2024-03-29T01:29:44;10.42;75.97
76897;SHT30;65856;52.178;21.176;2024-03-29T01:32:09;10.40;75.82
76897;SHT30;65856;52.178;21.176;2024-03-29T01:34:35;10.38;75.73
76897;SHT30;65856;52.178;21.176;2024-03-29T01:37:00;10.36;75.80
76897;SHT30;65856;52.178;21.176;2024-03-29T01:39:25;10.33;75.83
76897;SHT30;65856;52.178;21.176;2024-03-29T01:41:56;10.33;75.92
76897;SHT30;65856;52.178;21.176;2024-03-29T01:44:21;10.33;75.88
76897;SHT30;65856;52.178;21.176;2024-03-29T01:46:47;10.31;75.89
76897;SHT30;65856;52.178;21.176;2024-03-29T01:49:12;10.28;75.92
76897;SHT30;65856;52.178;21.176;2024-03-29T01:51:38;10.28;76.03
76897;SHT30;65856;52.178;21.176;2024-03-29T01:54:05;10.29;76.08
76897;SHT30;65856;52.178;21.176;2024-03-29T01:56:35;10.31;76.23
76897;SHT30;65856;52.178;21.176;2024-03-29T01:59:01;10.31;76.33
76897;SHT30;65856;52.178;21.176;2024-03-29T02:01:29;10.33;76.35
76897;SHT30;65856;52.178;21.176;2024-03-29T02:03:55;10.35;76.39
76897;SHT30;65856;52.178;21.176;2024-03-29T02:06:21;10.35;76.53
76897;SHT30;65856;52.178;21.176;2024-03-29T02:08:51;10.36;76.59
76897;SHT30;65856;52.178;21.176;2024-03-29T02:11:21;10.36;76.77
76897;SHT30;65856;52.178;21.176;2024-03-29T02:13:47;10.37;76.95
76897;SHT30;65856;52.178;21.176;2024-03-29T02:16:15;10.37;76.94
76897;SHT30;65856;52.178;21.176;2024-03-29T02:18:40;10.38;76.92
76897;SHT30;65856;52.178;21.176;2024-03-29T02:21:06;10.37;76.93
76897;SHT30;65856;52.178;21.176;2024-03-29T02:23:32;10.36;76.82
76897;SHT30;65856;52.178;21.176;2024-03-29T02:26:04;10.36;76.87
76897;SHT30;65856;52.178;21.176;2024-03-29T02:28:30;10.36;76.99
76897;SHT30;65856;52.178;21.176;2024-03-29T02:30:55;10.36;76.89
76897;SHT30;65856;52.178;21.176;2024-03-29T02:33:21;10.35;76.85
76897;SHT30;65856;52.178;21.176;2024-03-29T02:35:47;10.33;76.83
76897;SHT30;65856;52.178;21.176;2024-03-29T02:38:13;10.32;76.95
76897;SHT30;65856;52.178;21.176;2024-03-29T02:40:38;10.30;76.89
76897;SHT30;65856;52.178;21.176;2024-03-29T02:43:04;10.30;77.00
76897;SHT30;65856;52.178;21.176;2024-03-29T02:45:29;10.28;76.68
76897;SHT30;65856;52.178;21.176;2024-03-29T02:47:54;10.32;76.70
76897;SHT30;65856;52.178;21.176;2024-03-29T02:50:20;10.31;76.45
76897;SHT30;65856;52.178;21.176;2024-03-29T02:52:45;10.32;76.02
76897;SHT30;65856;52.178;21.176;2024-03-29T02:55:11;10.34;75.62
76897;SHT30;65856;52.178;21.176;2024-03-29T02:57:37;10.33;74.90
76897;SHT30;65856;52.178;21.176;2024-03-29T03:00:04;10.35;74.66
76897;SHT30;65856;52.178;21.176;2024-03-29T03:02:31;10.37;74.30
76897;SHT30;65856;52.178;21.176;2024-03-29T03:04:56;10.39;73.96
76897;SHT30;65856;52.178;21.176;2024-03-29T03:07:22;10.40;73.81
76897;SHT30;65856;52.178;21.176;2024-03-29T03:10:06;10.41;73.59
76897;SHT30;65856;52.178;21.176;2024-03-29T03:12:50;10.41;73.24
76897;SHT30;65856;52.178;21.176;2024-03-29T03:15:16;10.39;72.84
76897;SHT30;65856;52.178;21.176;2024-03-29T03:17:41;10.37;72.66
76897;SHT30;65856;52.178;21.176;2024-03-29T03:20:07;10.36;71.93
76897;SHT30;65856;52.178;21.176;2024-03-29T03:22:34;10.36;72.10
76897;SHT30;65856;52.178;21.176;2024-03-29T03:24:59;10.36;71.69
76897;SHT30;65856;52.178;21.176;2024-03-29T03:27:25;10.37;71.53
76897;SHT30;65856;52.178;21.176;2024-03-29T03:29:50;10.36;71.46
76897;SHT30;65856;52.178;21.176;2024-03-29T03:32:16;10.36;70.93
76897;SHT30;65856;52.178;21.176;2024-03-29T03:34:41;10.35;70.88
76897;SHT30;65856;52.178;21.176;2024-03-29T03:37:07;10.36;70.70
76897;SHT30;65856;52.178;21.176;2024-03-29T03:39:32;10.35;70.52
76897;SHT30;65856;52.178;21.176;2024-03-29T03:41:58;10.35;70.50
76897;SHT30;65856;52.178;21.176;2024-03-29T03:44:23;10.33;70.18
76897;SHT30;65856;52.178;21.176;2024-03-29T03:46:50;10.30;70.02
76897;SHT30;65856;52.178;21.176;2024-03-29T03:49:16;10.29;70.04
76897;SHT30;65856;52.178;21.176;2024-03-29T03:51:42;10.30;69.99
76897;SHT30;65856;52.178;21.176;2024-03-29T03:54:07;10.30;69.81
76897;SHT30;65856;52.178;21.176;2024-03-29T03:56:33;10.29;69.63
76897;SHT30;65856;52.178;21.176;2024-03-29T03:58:58;10.28;69.46
76897;SHT30;65856;52.178;21.176;2024-03-29T04:01:24;10.26;69.56
76897;SHT30;65856;52.178;21.176;2024-03-29T04:03:49;10.27;69.72
76897;SHT30;65856;52.178;21.176;2024-03-29T04:06:14;10.27;69.67
76897;SHT30;65856;52.178;21.176;2024-03-29T04:08:40;10.26;69.43
76897;SHT30;65856;52.178;21.176;2024-03-29T04:11:05;10.24;69.28
76897;SHT30;65856;52.178;21.176;2024-03-29T04:13:31;10.21;69.16
76897;SHT30;65856;52.178;21.176;2024-03-29T04:16:03;10.19;69.12
76897;SHT30;65856;52.178;21.176;2024-03-29T04:18:30;10.18;68.98
76897;SHT30;65856;52.178;21.176;2024-03-29T04:20:59;10.18;68.81
76897;SHT30;65856;52.178;21.176;2024-03-29T04:23:25;10.17;68.87
76897;SHT30;65856;52.178;21.176;2024-03-29T04:25:55;10.16;68.94
76897;SHT30;65856;52.178;21.176;2024-03-29T04:28:23;10.14;68.54
76897;SHT30;65856;52.178;21.176;2024-03-29T04:30:53;10.13;68.44
76897;SHT30;65856;52.178;21.176;2024-03-29T04:33:20;10.11;68.59
76897;SHT30;65856;52.178;21.176;2024-03-29T04:35:56;10.11;68.55
76897;SHT30;65856;52.178;21.176;2024-03-29T04:38:22;10.10;68.69
76897;SHT30;65856;52.178;21.176;2024-03-29T04:40:49;10.10;68.49
76897;SHT30;65856;52.178;21.176;2024-03-29T04:43:17;10.10;68.04
76897;SHT30;65856;52.178;21.176;2024-03-29T04:45:43;10.06;68.07
76897;SHT30;65856;52.178;21.176;2024-03-29T04:48:09;10.06;68.14
76897;SHT30;65856;52.178;21.176;2024-03-29T04:50:36;10.05;68.11
76897;SHT30;65856;52.178;21.176;2024-03-29T04:53:01;10.04;68.05
76897;SHT30;65856;52.178;21.176;2024-03-29T04:55:27;10.02;68.23
76897;SHT30;65856;52.178;21.176;2024-03-29T04:57:52;10.02;68.19
76897;SHT30;65856;52.178;21.176;2024-03-29T05:00:18;10.03;68.03
76897;SHT30;65856;52.178;21.176;2024-03-29T05:02:44;10.03;68.20
76897;SHT30;65856;52.178;21.176;2024-03-29T05:05:09;10.00;68.38
76897;SHT30;65856;52.178;21.176;2024-03-29T05:07:34;9.97;68.17
76897;SHT30;65856;52.178;21.176;2024-03-29T05:10:00;9.95;68.30
76897;SHT30;65856;52.178;21.176;2024-03-29T05:12:25;9.97;68.29
76897;SHT30;65856;52.178;21.176;2024-03-29T05:14:51;9.96;68.24
76897;SHT30;65856;52.178;21.176;2024-03-29T05:17:16;9.98;68.20
76897;SHT30;65856;52.178;21.176;2024-03-29T05:19:42;10.00;68.23
76897;SHT30;65856;52.178;21.176;2024-03-29T05:22:08;10.00;68.17
76897;SHT30;65856;52.178;21.176;2024-03-29T05:24:34;10.00;68.10
76897;SHT30;65856;52.178;21.176;2024-03-29T05:26:59;10.02;68.15
76897;SHT30;65856;52.178;21.176;2024-03-29T05:29:25;10.03;68.29
76897;SHT30;65856;52.178;21.176;2024-03-29T05:31:50;10.05;68.12
76897;SHT30;65856;52.178;21.176;2024-03-29T05:34:15;10.09;68.18
76897;SHT30;65856;52.178;21.176;2024-03-29T05:36:41;10.12;68.12
76897;SHT30;65856;52.178;21.176;2024-03-29T05:39:06;10.15;67.93
76897;SHT30;65856;52.178;21.176;2024-03-29T05:41:32;10.18;67.85
76897;SHT30;65856;52.178;21.176;2024-03-29T05:43:57;10.22;67.61
76897;SHT30;65856;52.178;21.176;2024-03-29T05:46:23;10.29;67.79
76897;SHT30;65856;52.178;21.176;2024-03-29T05:48:49;10.40;67.59
76897;SHT30;65856;52.178;21.176;2024-03-29T05:51:14;10.52;67.40
76897;SHT30;65856;52.178;21.176;2024-03-29T05:53:40;10.65;66.71
76897;SHT30;65856;52.178;21.176;2024-03-29T05:56:06;10.79;66.55
76897;SHT30;65856;52.178;21.176;2024-03-29T05:58:33;10.95;66.28
76897;SHT30;65856;52.178;21.176;2024-03-29T06:00:59;11.11;66.15
76897;SHT30;65856;52.178;21.176;2024-03-29T06:03:24;11.29;65.49
76897;SHT30;65856;52.178;21.176;2024-03-29T06:05:50;11.48;65.05
76897;SHT30;65856;52.178;21.176;2024-03-29T06:08:15;11.71;64.88
76897;SHT30;65856;52.178;21.176;2024-03-29T06:10:40;11.91;64.41
76897;SHT30;65856;52.178;21.176;2024-03-29T06:13:06;12.11;63.74
76897;SHT30;65856;52.178;21.176;2024-03-29T06:15:33;12.33;63.26
76897;SHT30;65856;52.178;21.176;2024-03-29T06:18:18;12.56;62.58
76897;SHT30;65856;52.178;21.176;2024-03-29T06:20:44;12.82;62.47
76897;SHT30;65856;52.178;21.176;2024-03-29T06:23:11;13.08;61.55
76897;SHT30;65856;52.178;21.176;2024-03-29T06:25:36;13.28;61.49
76897;SHT30;65856;52.178;21.176;2024-03-29T06:28:03;13.54;60.99
76897;SHT30;65856;52.178;21.176;2024-03-29T06:30:29;13.83;60.17
76897;SHT30;65856;52.178;21.176;2024-03-29T06:32:55;14.10;59.78
76897;SHT30;65856;52.178;21.176;2024-03-29T06:35:20;14.34;59.26
76897;SHT30;65856;52.178;21.176;2024-03-29T06:37:47;14.56;58.35
76897;SHT30;65856;52.178;21.176;2024-03-29T06:40:12;14.74;57.40
76897;SHT30;65856;52.178;21.176;2024-03-29T06:42:38;14.89;57.04
76897;SHT30;65856;52.178;21.176;2024-03-29T06:45:04;15.04;56.12
76897;SHT30;65856;52.178;21.176;2024-03-29T06:47:31;15.15;56.08
76897;SHT30;65856;52.178;21.176;2024-03-29T06:49:56;15.35;55.53
76897;SHT30;65856;52.178;21.176;2024-03-29T06:52:22;15.55;55.03
76897;SHT30;65856;52.178;21.176;2024-03-29T06:54:47;15.77;54.91
76897;SHT30;65856;52.178;21.176;2024-03-29T06:57:13;16.01;54.98
76897;SHT30;65856;52.178;21.176;2024-03-29T06:59:42;16.24;54.71
76897;SHT30;65856;52.178;21.176;2024-03-29T07:02:07;16.50;54.53
76897;SHT30;65856;52.178;21.176;2024-03-29T07:04:35;16.73;53.89
76897;SHT30;65856;52.178;21.176;2024-03-29T07:07:00;16.94;52.97
76897;SHT30;65856;52.178;21.176;2024-03-29T07:09:25;17.07;51.80
76897;SHT30;65856;52.178;21.176;2024-03-29T07:11:51;17.16;51.64
76897;SHT30;65856;52.178;21.176;2024-03-29T07:14:18;17.36;51.32
76897;SHT30;65856;52.178;21.176;2024-03-29T07:16:44;17.53;50.88
76897;SHT30;65856;52.178;21.176;2024-03-29T07:19:11;17.66;50.16
76897;SHT30;65856;52.178;21.176;2024-03-29T07:21:41;17.74;50.11
76897;SHT30;65856;52.178;21.176;2024-03-29T07:24:10;17.88;49.66
76897;SHT30;65856;52.178;21.176;2024-03-29T07:26:35;18.10;49.32
76897;SHT30;65856;52.178;21.176;2024-03-29T07:29:01;18.27;48.34
76897;SHT30;65856;52.178;21.176;2024-03-29T07:31:27;18.34;47.99
76897;SHT30;65856;52.178;21.176;2024-03-29T07:33:52;18.48;48.66
76897;SHT30;65856;52.178;21.176;2024-03-29T07:36:18;18.71;48.10
76897;SHT30;65856;52.178;21.176;2024-03-29T07:38:44;18.92;47.73
76897;SHT30;65856;52.178;21.176;2024-03-29T07:41:09;19.08;47.30
76897;SHT30;65856;52.178;21.176;2024-03-29T07:43:50;19.22;47.71
76897;SHT30;65856;52.178;21.176;2024-03-29T07:46:28;19.34;47.00
76897;SHT30;65856;52.178;21.176;2024-03-29T07:48:58;19.42;47.27
76897;SHT30;65856;52.178;21.176;2024-03-29T07:51:24;19.62;46.77
76897;SHT30;65856;52.178;21.176;2024-03-29T07:53:49;19.69;46.47
76897;SHT30;65856;52.178;21.176;2024-03-29T07:56:15;19.79;46.50
76897;SHT30;65856;52.178;21.176;2024-03-29T07:58:42;19.91;46.67
76897;SHT30;65856;52.178;21.176;2024-03-29T08:01:08;20.11;46.34
76897;SHT30;65856;52.178;21.176;2024-03-29T08:03:33;20.23;45.90
76897;SHT30;65856;52.178;21.176;2024-03-29T08:08:31;20.18;44.44
76897;SHT30;65856;52.178;21.176;2024-03-29T08:10:59;20.15;45.18
76897;SHT30;65856;52.178;21.176;2024-03-29T08:13:25;20.21;44.83
76897;SHT30;65856;52.178;21.176;2024-03-29T08:16:01;20.25;44.52
76897;SHT30;65856;52.178;21.176;2024-03-29T08:18:27;20.24;44.48
76897;SHT30;65856;52.178;21.176;2024-03-29T08:20:54;20.26;44.22
76897;SHT30;65856;52.178;21.176;2024-03-29T08:23:24;20.23;44.02
76897;SHT30;65856;52.178;21.176;2024-03-29T08:25:50;20.15;43.64
76897;SHT30;65856;52.178;21.176;2024-03-29T08:28:20;20.10;44.01
76897;SHT30;65856;52.178;21.176;2024-03-29T08:31:02;20.12;44.12
76897;SHT30;65856;52.178;21.176;2024-03-29T08:33:30;20.12;44.16
76897;SHT30;65856;52.178;21.176;2024-03-29T08:35:56;20.22;44.69
76897;SHT30;65856;52.178;21.176;2024-03-29T08:38:22;20.33;45.04
76897;SHT30;65856;52.178;21.176;2024-03-29T08:40:48;20.41;44.16
76897;SHT30;65856;52.178;21.176;2024-03-29T08:43:14;20.43;44.57
76897;SHT30;65856;52.178;21.176;2024-03-29T08:45:41;20.38;43.50
76897;SHT30;65856;52.178;21.176;2024-03-29T08:48:07;20.30;43.19
76897;SHT30;65856;52.178;21.176;2024-03-29T08:50:33;20.21;43.12
76897;SHT30;65856;52.178;21.176;2024-03-29T08:53:00;20.21;43.17
76897;SHT30;65856;52.178;21.176;2024-03-29T08:55:26;20.17;42.51
76897;SHT30;65856;52.178;21.176;2024-03-29T08:57:52;20.21;42.62
76897;SHT30;65856;52.178;21.176;2024-03-29T09:00:17;20.26;42.60
76897;SHT30;65856;52.178;21.176;2024-03-29T09:02:43;20.28;41.37
76897;SHT30;65856;52.178;21.176;2024-03-29T09:05:08;20.16;41.52
76897;SHT30;65856;52.178;21.176;2024-03-29T09:07:34;20.17;42.01
76897;SHT30;65856;52.178;21.176;2024-03-29T09:09:59;20.11;41.80
76897;SHT30;65856;52.178;21.176;2024-03-29T09:12:24;20.15;42.41
76897;SHT30;65856;52.178;21.176;2024-03-29T09:14:50;20.11;41.78
76897;SHT30;65856;52.178;21.176;2024-03-29T09:17:17;19.98;41.90
76897;SHT30;65856;52.178;21.176;2024-03-29T09:19:48;20.04;42.55
76897;SHT30;65856;52.178;21.176;2024-03-29T09:22:16;20.15;42.19
76897;SHT30;65856;52.178;21.176;2024-03-29T09:24:42;20.17;42.24
76897;SHT30;65856;52.178;21.176;2024-03-29T09:27:07;20.27;42.85
76897;SHT30;65856;52.178;21.176;2024-03-29T09:29:33;20.39;42.32
76897;SHT30;65856;52.178;21.176;2024-03-29T09:31:59;20.46;42.50
76897;SHT30;65856;52.178;21.176;2024-03-29T09:34:26;20.47;41.67
76897;SHT30;65856;52.178;21.176;2024-03-29T09:36:52;20.45;41.58
76897;SHT30;65856;52.178;21.176;2024-03-29T09:39:18;20.37;41.63
76897;SHT30;65856;52.178;21.176;2024-03-29T09:41:46;20.27;41.76
76897;SHT30;65856;52.178;21.176;2024-03-29T09:44:12;20.20;41.56
76897;SHT30;65856;52.178;21.176;2024-03-29T09:46:38;20.18;41.78
76897;SHT30;65856;52.178;21.176;2024-03-29T09:49:08;20.23;41.86
76897;SHT30;65856;52.178;21.176;2024-03-29T09:51:34;20.26;41.19
76897;SHT30;65856;52.178;21.176;2024-03-29T09:54:00;20.10;40.71
76897;SHT30;65856;52.178;21.176;2024-03-29T09:56:28;19.98;41.43
76897;SHT30;65856;52.178;21.176;2024-03-29T09:58:54;19.91;41.64
76897;SHT30;65856;52.178;21.176;2024-03-29T10:01:19;19.76;41.74
76897;SHT30;65856;52.178;21.176;2024-03-29T10:03:48;19.69;42.41
76897;SHT30;65856;52.178;21.176;2024-03-29T10:06:18;19.66;42.85
76897;SHT30;65856;52.178;21.176;2024-03-29T10:08:44;19.66;42.91
76897;SHT30;65856;52.178;21.176;2024-03-29T10:11:10;19.63;42.79
76897;SHT30;65856;52.178;21.176;2024-03-29T10:13:36;19.59;42.61
76897;SHT30;65856;52.178;21.176;2024-03-29T10:16:02;19.46;42.56
76897;SHT30;65856;52.178;21.176;2024-03-29T10:18:29;19.25;42.30
76897;SHT30;65856;52.178;21.176;2024-03-29T10:21:01;19.12;43.00
76897;SHT30;65856;52.178;21.176;2024-03-29T10:23:31;19.10;43.41
76897;SHT30;65856;52.178;21.176;2024-03-29T10:25:59;19.06;43.05
76897;SHT30;65856;52.178;21.176;2024-03-29T10:28:27;19.06;43.03
76897;SHT30;65856;52.178;21.176;2024-03-29T10:31:03;19.06;42.78
76897;SHT30;65856;52.178;21.176;2024-03-29T10:33:30;18.98;42.89
76897;SHT30;65856;52.178;21.176;2024-03-29T10:35:56;18.92;42.59
76897;SHT30;65856;52.178;21.176;2024-03-29T10:38:24;18.86;43.08
76897;SHT30;65856;52.178;21.176;2024-03-29T10:40:51;18.84;43.26
76897;SHT30;65856;52.178;21.176;2024-03-29T10:43:18;18.85;43.60
76897;SHT30;65856;52.178;21.176;2024-03-29T10:45:45;18.90;43.65
76897;SHT30;65856;52.178;21.176;2024-03-29T10:48:14;18.92;43.30
76897;SHT30;65856;52.178;21.176;2024-03-29T10:50:41;18.89;43.00
76897;SHT30;65856;52.178;21.176;2024-03-29T10:53:08;18.88;42.95
76897;SHT30;65856;52.178;21.176;2024-03-29T10:55:36;18.82;43.25
76897;SHT30;65856;52.178;21.176;2024-03-29T10:58:03;18.78;42.84
76897;SHT30;65856;52.178;21.176;2024-03-29T11:00:33;18.80;42.99
76897;SHT30;65856;52.178;21.176;2024-03-29T11:05:48;18.79;42.92
76897;SHT30;65856;52.178;21.176;2024-03-29T11:08:24;18.81;43.02
76897;SHT30;65856;52.178;21.176;2024-03-29T11:10:54;18.80;42.56
76897;SHT30;65856;52.178;21.176;2024-03-29T11:13:27;18.77;42.41
76897;SHT30;65856;52.178;21.176;2024-03-29T11:16:02;18.76;42.37
76897;SHT30;65856;52.178;21.176;2024-03-29T11:18:28;18.70;42.22
76897;SHT30;65856;52.178;21.176;2024-03-29T11:20:55;18.73;42.80
76897;SHT30;65856;52.178;21.176;2024-03-29T11:23:22;18.74;42.46
76897;SHT30;65856;52.178;21.176;2024-03-29T11:25:50;18.76;42.39
76897;SHT30;65856;52.178;21.176;2024-03-29T11:28:32;18.78;42.32
76897;SHT30;65856;52.178;21.176;2024-03-29T11:31:06;18.80;42.03
76897;SHT30;65856;52.178;21.176;2024-03-29T11:36:10;18.76;41.96
76897;SHT30;65856;52.178;21.176;2024-03-29T11:38:39;18.70;41.45
76897;SHT30;65856;52.178;21.176;2024-03-29T11:41:16;18.64;41.13
76897;SHT30;65856;52.178;21.176;2024-03-29T11:43:43;18.57;41.80
76897;SHT30;65856;52.178;21.176;2024-03-29T11:46:09;18.57;41.89
76897;SHT30;65856;52.178;21.176;2024-03-29T11:48:40;18.58;41.96
76897;SHT30;65856;52.178;21.176;2024-03-29T11:51:06;18.56;42.07
76897;SHT30;65856;52.178;21.176;2024-03-29T11:53:35;18.52;41.34
76897;SHT30;65856;52.178;21.176;2024-03-29T11:56:01;18.48;41.32
76897;SHT30;65856;52.178;21.176;2024-03-29T11:58:29;18.46;41.04
76897;SHT30;65856;52.178;21.176;2024-03-29T12:00:57;18.42;40.71
76897;SHT30;65856;52.178;21.176;2024-03-29T12:03:25;18.39;40.36
76897;SHT30;65856;52.178;21.176;2024-03-29T12:05:52;18.34;40.71
76897;SHT30;65856;52.178;21.176;2024-03-29T12:08:34;18.33;40.67
76897;SHT30;65856;52.178;21.176;2024-03-29T12:11:05;18.33;40.76
76897;SHT30;65856;52.178;21.176;2024-03-29T12:13:31;18.31;40.73
76897;SHT30;65856;52.178;21.176;2024-03-29T12:15:57;18.32;40.64
76897;SHT30;65856;52.178;21.176;2024-03-29T12:18:24;18.30;40.78
76897;SHT30;65856;52.178;21.176;2024-03-29T12:20:52;18.27;40.63
76897;SHT30;65856;52.178;21.176;2024-03-29T12:23:18;18.25;40.26
76897;SHT30;65856;52.178;21.176;2024-03-29T12:25:45;18.27;40.25
76897;SHT30;65856;52.178;21.176;2024-03-29T12:28:13;18.28;40.60
76897;SHT30;65856;52.178;21.176;2024-03-29T12:30:46;18.33;41.18
76897;SHT30;65856;52.178;21.176;2024-03-29T12:33:14;18.37;41.37
76897;SHT30;65856;52.178;21.176;2024-03-29T12:35:51;18.38;41.22
76897;SHT30;65856;52.178;21.176;2024-03-29T12:38:19;18.40;40.93
76897;SHT30;65856;52.178;21.176;2024-03-29T12:40:46;18.42;40.56
76897;SHT30;65856;52.178;21.176;2024-03-29T12:43:14;18.42;40.77
76897;SHT30;65856;52.178;21.176;2024-03-29T12:45:45;18.42;41.20
76897;SHT30;65856;52.178;21.176;2024-03-29T12:48:11;18.44;40.49
76897;SHT30;65856;52.178;21.176;2024-03-29T12:50:40;18.41;40.30
76897;SHT30;65856;52.178;21.176;2024-03-29T12:53:07;18.33;40.46
76897;SHT30;65856;52.178;21.176;2024-03-29T12:55:35;18.30;40.34
76897;SHT30;65856;52.178;21.176;2024-03-29T12:58:03;18.27;40.10
76897;SHT30;65856;52.178;21.176;2024-03-29T13:00:33;18.20;39.65
76897;SHT30;65856;52.178;21.176;2024-03-29T13:02:59;18.14;39.83
76897;SHT30;65856;52.178;21.176;2024-03-29T13:05:25;18.14;39.77
76897;SHT30;65856;52.178;21.176;2024-03-29T13:07:52;18.14;39.80
76897;SHT30;65856;52.178;21.176;2024-03-29T13:10:18;18.14;39.57
76897;SHT30;65856;52.178;21.176;2024-03-29T13:12:47;18.12;39.43
76897;SHT30;65856;52.178;21.176;2024-03-29T13:15:24;18.11;39.29
76897;SHT30;65856;52.178;21.176;2024-03-29T13:17:52;18.11;39.51
76897;SHT30;65856;52.178;21.176;2024-03-29T13:20:19;18.11;39.43
76897;SHT30;65856;52.178;21.176;2024-03-29T13:22:47;18.10;39.52
76897;SHT30;65856;52.178;21.176;2024-03-29T13:25:15;18.10;38.70
76897;SHT30;65856;52.178;21.176;2024-03-29T13:27:42;18.07;38.72
76897;SHT30;65856;52.178;21.176;2024-03-29T13:30:09;18.07;38.80
76897;SHT30;65856;52.178;21.176;2024-03-29T13:32:37;18.05;38.91
76897;SHT30;65856;52.178;21.176;2024-03-29T13:35:05;18.05;39.05
76897;SHT30;65856;52.178;21.176;2024-03-29T13:37:34;18.06;39.24
76897;SHT30;65856;52.178;21.176;2024-03-29T13:40:06;18.08;38.86
76897;SHT30;65856;52.178;21.176;2024-03-29T13:42:33;18.08;37.72
76897;SHT30;65856;52.178;21.176;2024-03-29T13:44:59;18.08;37.75
76897;SHT30;65856;52.178;21.176;2024-03-29T13:47:25;18.11;38.51
76897;SHT30;65856;52.178;21.176;2024-03-29T13:49:50;18.15;38.79
76897;SHT30;65856;52.178;21.176;2024-03-29T13:52:18;18.16;38.10
76897;SHT30;65856;52.178;21.176;2024-03-29T13:54:45;18.15;38.08
76897;SHT30;65856;52.178;21.176;2024-03-29T13:57:14;18.13;38.37
76897;SHT30;65856;52.178;21.176;2024-03-29T13:59:40;18.10;38.49
76897;SHT30;65856;52.178;21.176;2024-03-29T14:02:08;18.04;38.35
76897;SHT30;65856;52.178;21.176;2024-03-29T14:04:36;17.99;38.05
76897;SHT30;65856;52.178;21.176;2024-03-29T14:07:01;17.95;37.58
76897;SHT30;65856;52.178;21.176;2024-03-29T14:09:28;17.96;37.77
76897;SHT30;65856;52.178;21.176;2024-03-29T14:11:54;17.98;37.62
76897;SHT30;65856;52.178;21.176;2024-03-29T14:14:19;17.97;37.35
76897;SHT30;65856;52.178;21.176;2024-03-29T14:16:45;17.99;37.30
76897;SHT30;65856;52.178;21.176;2024-03-29T14:19:10;18.01;37.61
76897;SHT30;65856;52.178;21.176;2024-03-29T14:21:36;18.02;38.17
76897;SHT30;65856;52.178;21.176;2024-03-29T14:24:01;18.04;38.58
76897;SHT30;65856;52.178;21.176;2024-03-29T14:26:27;18.03;38.32
76897;SHT30;65856;52.178;21.176;2024-03-29T14:28:52;18.00;38.66
76897;SHT30;65856;52.178;21.176;2024-03-29T14:31:17;17.95;39.13
76897;SHT30;65856;52.178;21.176;2024-03-29T14:33:43;17.90;38.54
76897;SHT30;65856;52.178;21.176;2024-03-29T14:36:09;17.84;38.52
76897;SHT30;65856;52.178;21.176;2024-03-29T14:38:35;17.77;38.66
76897;SHT30;65856;52.178;21.176;2024-03-29T14:41:00;17.71;38.63
76897;SHT30;65856;52.178;21.176;2024-03-29T14:43:26;17.68;38.69
76897;SHT30;65856;52.178;21.176;2024-03-29T14:45:51;17.68;38.78
76897;SHT30;65856;52.178;21.176;2024-03-29T14:48:17;17.69;38.75
76897;SHT30;65856;52.178;21.176;2024-03-29T14:50:43;17.70;38.89
76897;SHT30;65856;52.178;21.176;2024-03-29T14:53:09;17.70;39.05
76897;SHT30;65856;52.178;21.176;2024-03-29T14:55:34;17.70;39.41
76897;SHT30;65856;52.178;21.176;2024-03-29T14:58:04;17.68;39.72
76897;SHT30;65856;52.178;21.176;2024-03-29T15:00:33;17.65;39.55
76897;SHT30;65856;52.178;21.176;2024-03-29T15:02:58;17.63;39.33
76897;SHT30;65856;52.178;21.176;2024-03-29T15:05:24;17.64;39.80
76897;SHT30;65856;52.178;21.176;2024-03-29T15:07:52;17.63;39.91
76897;SHT30;65856;52.178;21.176;2024-03-29T15:10:18;17.62;39.92
76897;SHT30;65856;52.178;21.176;2024-03-29T15:12:44;17.59;39.34
76897;SHT30;65856;52.178;21.176;2024-03-29T15:15:13;17.57;38.98
76897;SHT30;65856;52.178;21.176;2024-03-29T15:17:38;17.53;38.69
76897;SHT30;65856;52.178;21.176;2024-03-29T15:20:07;17.48;38.82
76897;SHT30;65856;52.178;21.176;2024-03-29T15:22:34;17.46;38.92
76897;SHT30;65856;52.178;21.176;2024-03-29T15:25:03;17.44;39.19